createdAt,value
2022-08-16T00:02:32.300Z,23.70
2022-08-16T00:05:01.082Z,23.60
2022-08-16T00:07:29.717Z,23.60
2022-08-16T00:10:00.881Z,23.60
2022-08-16T00:12:31.870Z,23.60
2022-08-16T00:15:11.863Z,23.60
2022-08-16T00:17:56.054Z,23.60
2022-08-16T00:20:27.162Z,23.60
2022-08-16T00:22:58.559Z,23.60
2022-08-16T00:26:33.626Z,23.70
2022-08-16T00:28:18.976Z,23.70
2022-08-16T00:30:48.578Z,23.70
2022-08-16T00:33:19.365Z,23.70
2022-08-16T00:35:53.423Z,23.70
2022-08-16T00:38:40.352Z,23.70
2022-08-16T00:41:09.953Z,23.70
2022-08-16T00:43:43.407Z,23.70
2022-08-16T00:46:33.239Z,23.70
2022-08-16T00:49:18.698Z,23.70
2022-08-16T00:51:54.878Z,23.60
2022-08-16T00:54:26.055Z,23.70
2022-08-16T00:57:00.431Z,23.70
2022-08-16T00:59:34.225Z,23.70
2022-08-16T01:02:30.217Z,23.70
2022-08-16T01:05:09.538Z,23.60
2022-08-16T01:07:50.508Z,23.60
2022-08-16T01:10:21.092Z,23.60
2022-08-16T01:13:02.390Z,23.60
2022-08-16T01:15:35.075Z,23.50
2022-08-16T01:18:07.660Z,23.50
2022-08-16T01:21:10.127Z,23.50
2022-08-16T01:23:58.025Z,23.50
2022-08-16T01:26:34.134Z,23.60
2022-08-16T01:29:10.496Z,23.60
2022-08-16T01:31:42.577Z,23.50
2022-08-16T01:34:25.262Z,23.50
2022-08-16T01:37:04.431Z,23.50
2022-08-16T01:39:35.647Z,23.40
2022-08-16T01:42:12.071Z,23.40
2022-08-16T01:44:46.671Z,23.40
2022-08-16T01:47:20.479Z,23.40
2022-08-16T01:50:42.142Z,23.40
2022-08-16T01:52:37.314Z,23.40
2022-08-16T01:55:12.083Z,23.40
2022-08-16T01:57:53.454Z,23.40
2022-08-16T02:00:29.343Z,23.40
2022-08-16T02:02:58.170Z,23.40
2022-08-16T02:05:30.719Z,23.30
2022-08-16T02:07:59.179Z,23.30
2022-08-16T02:10:28.701Z,23.30
2022-08-16T02:13:00.658Z,23.30
2022-08-16T02:15:35.597Z,23.30
2022-08-16T02:18:12.723Z,23.30
2022-08-16T02:20:45.524Z,23.30
2022-08-16T02:23:14.248Z,23.20
2022-08-16T02:25:52.829Z,23.20
2022-08-16T02:28:26.233Z,23.20
2022-08-16T02:30:56.816Z,23.20
2022-08-16T02:33:44.159Z,23.20
2022-08-16T02:36:42.310Z,23.20
2022-08-16T02:39:06.311Z,23.30
2022-08-16T02:41:43.212Z,23.30
2022-08-16T02:44:14.070Z,23.30
2022-08-16T02:46:49.728Z,23.20
2022-08-16T02:49:21.465Z,23.20
2022-08-16T02:51:50.439Z,23.20
2022-08-16T02:54:24.573Z,23.20
2022-08-16T02:56:54.110Z,23.10
2022-08-16T02:59:24.380Z,23.10
2022-08-16T03:01:52.457Z,23.10
2022-08-16T03:04:40.768Z,23.10
2022-08-16T03:07:14.763Z,23.10
2022-08-16T03:09:44.305Z,23.10
2022-08-16T03:12:16.664Z,23.10
2022-08-16T03:14:46.553Z,23.00
2022-08-16T03:17:14.982Z,23.00
2022-08-16T03:19:48.569Z,22.90
2022-08-16T03:22:29.566Z,22.90
2022-08-16T03:25:00.809Z,22.90
2022-08-16T03:27:32.618Z,22.90
2022-08-16T03:30:02.522Z,22.90
2022-08-16T03:32:51.347Z,22.90
2022-08-16T03:35:33.033Z,22.90
2022-08-16T03:38:32.614Z,22.90
2022-08-16T03:40:56.416Z,22.80
2022-08-16T03:43:50.619Z,22.80
2022-08-16T03:46:44.961Z,22.80
2022-08-16T03:49:12.278Z,22.80
2022-08-16T03:51:44.911Z,22.70
2022-08-16T03:54:13.060Z,22.70
2022-08-16T03:56:58.081Z,22.70
2022-08-16T03:59:31.398Z,22.70
2022-08-16T04:02:00.960Z,22.60
2022-08-16T04:04:33.482Z,22.60
2022-08-16T04:07:02.823Z,22.60
2022-08-16T04:09:35.408Z,22.60
2022-08-16T04:12:11.109Z,22.60
2022-08-16T04:14:54.696Z,22.50
2022-08-16T04:17:24.279Z,22.50
2022-08-16T04:19:59.908Z,22.50
2022-08-16T04:22:29.483Z,22.50
2022-08-16T04:24:59.358Z,22.50
2022-08-16T04:27:29.074Z,22.50
2022-08-16T04:30:03.293Z,22.40
2022-08-16T04:32:32.208Z,22.40
2022-08-16T04:35:06.302Z,22.40
2022-08-16T04:37:41.879Z,22.40
2022-08-16T04:40:20.607Z,22.40
2022-08-16T04:42:50.618Z,22.40
2022-08-16T04:45:36.570Z,22.40
2022-08-16T04:48:06.018Z,22.30
2022-08-16T04:50:34.337Z,22.40
2022-08-16T04:53:05.698Z,22.30
2022-08-16T04:55:37.638Z,22.30
2022-08-16T04:58:44.781Z,22.30
2022-08-16T05:01:02.818Z,22.30
2022-08-16T05:03:41.898Z,22.30
2022-08-16T05:06:41.978Z,22.30
2022-08-16T05:09:16.442Z,22.30
2022-08-16T05:11:44.812Z,22.30
2022-08-16T05:14:20.343Z,22.30
2022-08-16T05:17:06.233Z,22.30
2022-08-16T05:19:36.211Z,22.30
2022-08-16T05:22:05.320Z,22.40
2022-08-16T05:24:33.575Z,22.30
2022-08-16T05:27:11.397Z,22.40
2022-08-16T05:30:00.028Z,22.30
2022-08-16T05:32:32.326Z,22.30
2022-08-16T05:35:02.732Z,22.40
2022-08-16T05:37:39.902Z,22.40
2022-08-16T05:40:10.512Z,22.40
2022-08-16T05:42:46.174Z,22.40
2022-08-16T05:45:21.318Z,22.40
2022-08-16T05:48:00.413Z,22.40
2022-08-16T05:50:34.645Z,22.50
2022-08-16T05:53:05.777Z,22.40
2022-08-16T05:55:35.208Z,22.40
2022-08-16T05:58:31.412Z,22.40
2022-08-16T06:00:59.943Z,22.40
2022-08-16T06:03:34.831Z,22.40
2022-08-16T06:06:03.265Z,22.40
2022-08-16T06:08:45.021Z,22.40
2022-08-16T06:11:14.858Z,22.50
2022-08-16T06:13:45.634Z,22.50
2022-08-16T06:16:19.471Z,22.50
